Terminal Aerodrome Forecast
Issued by NWS

Home | Current Version | Previous Version | Text Only | Print | Product List | Glossary On
Versions: 1 2 3 4 5 6 7 8 9 10 11 12 13 14
000
FTAK31 PAJN 211700
TAFAPG
TAF
PAPG 211730Z 2118/2218 VRB04KT P6SM -RA FEW004 BKN035 OVC060
     FM212000 09006KT P6SM RA SCT004 OVC025
     FM220000 12010G15KT P6SM -SHRA SCT020 OVC035
     FM220300 21006KT 6SM -SHRA SCT015 OVC025
     FM220900 VRB03KT 4SM -SHRA BR OVC015
     FM221500 VRB03KT 5SM -SHRA BKN025 OVC040
      AMD LTD TO CLD VIS AND WIND 2206/2215=

USA.gov is the U.S. government's official web portal to all federal, state and local government web resources and services.